Time;durP1;ratioP1;P1;durP2;ratioP2;P2;SDS_P1;SDS_P2;PMS_P1;PMS_P2;Temp;Humidity;BMP_temperature;BMP_pressure;BME280_temperature;BME280_humidity;BME280_pressure;Samples;Min_cycle;Max_cycle;Signal;HPM_P1;HPM_P2
2023/09/21 00:01:03;;;;;;;0.00;0.00;;;17.70;99.90;;;;;;4970951;28;20538;-64
2023/09/21 00:03:35;;;;;;;0.05;0.05;;;17.70;99.90;;;;;;4971751;28;20039;-64
2023/09/21 00:06:02;;;;;;;0.00;0.00;;;17.70;99.90;;;;;;4972888;28;20121;-64
2023/09/21 00:08:27;;;;;;;0.10;0.10;;;17.80;99.90;;;;;;4971047;28;20038;-64
2023/09/21 00:10:54;;;;;;;0.00;0.00;;;17.80;99.90;;;;;;4971808;28;20130;-64
2023/09/21 00:13:26;;;;;;;20.65;1.08;;;17.80;99.90;;;;;;4970944;28;20046;-64
2023/09/21 00:15:52;;;;;;;0.52;0.52;;;17.80;99.90;;;;;;4972187;28;20150;-64
2023/09/21 00:18:23;;;;;;;0.00;0.00;;;17.80;99.90;;;;;;4969934;28;20098;-65
2023/09/21 00:20:52;;;;;;;0.43;0.43;;;17.80;99.90;;;;;;4972452;28;20097;-65
2023/09/21 00:23:21;;;;;;;0.60;0.35;;;17.80;99.90;;;;;;4971131;28;20046;-65
2023/09/21 00:25:47;;;;;;;0.63;0.30;;;17.80;99.90;;;;;;4971571;28;20506;-65
2023/09/21 00:28:14;;;;;;;0.05;0.05;;;17.80;99.90;;;;;;4970885;28;20042;-65
2023/09/21 00:30:41;;;;;;;0.47;0.08;;;17.80;99.90;;;;;;4972438;28;20050;-64
2023/09/21 00:33:07;;;;;;;0.20;0.20;;;17.80;99.90;;;;;;4971592;28;20049;-65
2023/09/21 00:35:33;;;;;;;0.10;0.10;;;17.70;99.90;;;;;;4972664;28;20405;-65
2023/09/21 00:38:01;;;;;;;0.05;0.05;;;17.70;99.90;;;;;;4970569;28;20043;-64
2023/09/21 00:40:27;;;;;;;0.00;0.00;;;17.70;99.90;;;;;;4964139;28;20064;-64
2023/09/21 00:42:52;;;;;;;0.20;0.20;;;17.70;99.90;;;;;;4972635;28;20453;-65
2023/09/21 00:45:21;;;;;;;0.17;0.10;;;17.70;99.90;;;;;;4970259;28;20395;-65
2023/09/21 00:47:50;;;;;;;0.20;0.20;;;17.70;99.90;;;;;;4965399;28;20055;-65
2023/09/21 00:50:21;;;;;;;0.00;0.00;;;17.70;99.90;;;;;;4970700;28;20050;-65
2023/09/21 00:52:49;;;;;;;0.10;0.10;;;17.70;99.90;;;;;;4971439;28;20506;-65
2023/09/21 00:55:21;;;;;;;0.10;0.10;;;17.70;99.90;;;;;;4952959;28;20163;-64
2023/09/21 00:57:48;;;;;;;0.20;0.20;;;17.70;99.90;;;;;;4967746;28;20039;-65
2023/09/21 01:00:16;;;;;;;0.03;0.03;;;17.70;99.90;;;;;;4973847;28;20058;-64
2023/09/21 01:02:42;;;;;;;0.00;0.00;;;17.70;99.90;;;;;;4975473;28;20053;-65
2023/09/21 01:05:17;;;;;;;0.38;0.32;;;17.70;99.90;;;;;;4976264;28;20038;-64
2023/09/21 01:07:45;;;;;;;0.00;0.00;;;17.70;99.90;;;;;;4975163;28;20049;-65
2023/09/21 01:10:15;;;;;;;0.00;0.00;;;17.70;99.90;;;;;;4974314;28;20490;-64
2023/09/21 01:12:49;;;;;;;0.03;0.03;;;17.80;99.90;;;;;;4975869;28;20765;-64
2023/09/21 01:15:15;;;;;;;;;;;17.70;99.90;;;;;;4975557;28;20125;-64
2023/09/21 01:17:45;;;;;;;0.15;0.15;;;17.70;99.90;;;;;;4975832;28;20016;-64
2023/09/21 01:20:32;;;;;;;0.20;0.20;;;17.80;99.90;;;;;;4974262;28;20045;-64
2023/09/21 01:23:18;;;;;;;0.00;0.00;;;17.80;99.90;;;;;;4973612;28;20073;-64
2023/09/21 01:25:46;;;;;;;0.10;0.10;;;17.70;99.90;;;;;;4974788;28;20051;-64
2023/09/21 01:28:22;;;;;;;1.15;1.00;;;17.70;99.90;;;;;;4966705;28;20500;-64
2023/09/21 01:30:49;;;;;;;3.05;1.27;;;17.70;99.90;;;;;;4973366;28;20051;-64
2023/09/21 01:33:18;;;;;;;0.30;0.30;;;17.70;99.90;;;;;;4974963;28;20090;-64
2023/09/21 01:35:44;;;;;;;9.65;0.57;;;17.70;99.90;;;;;;4974460;28;20078;-64
2023/09/21 01:38:12;;;;;;;0.00;0.00;;;17.70;99.90;;;;;;4973129;28;20039;-64
2023/09/21 01:40:38;;;;;;;0.10;0.10;;;17.70;99.90;;;;;;4974976;28;20490;-64
2023/09/21 01:43:08;;;;;;;0.57;0.57;;;17.70;99.90;;;;;;4974237;28;20070;-64
2023/09/21 01:45:42;;;;;;;0.05;0.05;;;17.70;99.90;;;;;;4974434;28;20122;-64
2023/09/21 01:48:09;;;;;;;0.00;0.00;;;17.70;99.90;;;;;;4969857;28;20533;-64
2023/09/21 01:50:44;;;;;;;0.03;0.03;;;17.60;99.90;;;;;;4974376;28;20053;-64
2023/09/21 01:53:11;;;;;;;0.10;0.10;;;17.60;99.90;;;;;;4973144;28;20488;-64
2023/09/21 01:55:40;;;;;;;0.00;0.00;;;17.60;99.90;;;;;;4955893;28;20034;-64
2023/09/21 01:58:09;;;;;;;0.30;0.30;;;17.60;99.90;;;;;;4972484;28;20053;-64
2023/09/21 02:00:41;;;;;;;0.00;0.00;;;17.60;99.90;;;;;;4974870;28;20053;-63
2023/09/21 02:03:12;;;;;;;0.00;0.00;;;17.60;99.90;;;;;;4974108;28;20437;-64
2023/09/21 02:05:39;;;;;;;0.90;0.28;;;17.70;99.90;;;;;;4956880;28;20055;-64
2023/09/21 02:08:06;;;;;;;0.03;0.03;;;17.70;99.90;;;;;;4974529;28;20034;-64
2023/09/21 02:10:32;;;;;;;0.05;0.05;;;17.60;99.90;;;;;;4974018;28;20047;-64
2023/09/21 02:13:00;;;;;;;0.00;0.00;;;17.60;99.90;;;;;;4972740;28;20101;-64
2023/09/21 02:15:27;;;;;;;0.00;0.00;;;17.60;99.90;;;;;;4974829;28;20505;-64
2023/09/21 02:17:55;;;;;;;0.00;0.00;;;17.60;99.90;;;;;;4973989;28;20051;-64
2023/09/21 02:20:28;;;;;;;0.00;0.00;;;17.60;99.90;;;;;;4955526;28;20058;-64
2023/09/21 02:22:58;;;;;;;0.00;0.00;;;17.60;99.90;;;;;;4973863;28;20054;-64
2023/09/21 02:25:25;;;;;;;0.30;0.20;;;17.60;99.90;;;;;;4971692;28;20055;-64
2023/09/21 02:27:51;;;;;;;0.00;0.00;;;17.60;99.90;;;;;;4974196;28;20047;-64
2023/09/21 02:30:20;;;;;;;0.38;0.38;;;17.60;99.90;;;;;;4974334;28;20058;-64
2023/09/21 02:32:51;;;;;;;1.17;1.00;;;17.60;99.90;;;;;;4971786;28;20045;-64
2023/09/21 02:35:27;;;;;;;0.00;0.00;;;17.70;99.90;;;;;;4972686;28;20046;-64
2023/09/21 02:37:54;;;;;;;0.20;0.10;;;17.60;99.90;;;;;;4974200;28;20038;-64
2023/09/21 02:40:22;;;;;;;0.00;0.00;;;17.70;99.90;;;;;;4971192;28;20508;-64
2023/09/21 02:42:50;;;;;;;0.20;0.20;;;17.70;99.90;;;;;;4973928;28;20047;-64
2023/09/21 02:45:18;;;;;;;0.00;0.00;;;17.70;99.90;;;;;;4972949;28;20459;-64
2023/09/21 02:47:44;;;;;;;0.30;0.30;;;17.60;99.90;;;;;;4973600;28;20078;-64
2023/09/21 02:50:14;;;;;;;0.08;0.08;;;17.60;99.90;;;;;;4971534;28;20066;-64
2023/09/21 02:52:47;;;;;;;0.00;0.00;;;17.70;99.90;;;;;;4972703;28;20050;-64
2023/09/21 02:55:16;;;;;;;0.00;0.00;;;17.70;99.90;;;;;;4971874;28;20390;-64
2023/09/21 02:57:45;;;;;;;0.00;0.00;;;17.70;99.90;;;;;;4966779;28;20432;-64
2023/09/21 03:00:14;;;;;;;0.05;0.05;;;17.70;99.90;;;;;;4973065;28;20074;-64
2023/09/21 03:02:39;;;;;;;0.13;0.08;;;17.70;99.90;;;;;;4973610;28;20046;-64
2023/09/21 03:05:10;;;;;;;0.25;0.25;;;17.70;99.90;;;;;;4954101;28;20170;-64
2023/09/21 03:07:38;;;;;;;0.55;0.50;;;17.70;99.90;;;;;;4970840;28;20050;-64
2023/09/21 03:10:09;;;;;;;0.00;0.00;;;17.70;99.90;;;;;;4969519;28;20043;-64
2023/09/21 03:12:36;;;;;;;0.43;0.43;;;17.70;99.90;;;;;;4973138;28;20549;-64
2023/09/21 03:15:06;;;;;;;0.10;0.10;;;17.70;99.90;;;;;;4971025;28;20039;-64
2023/09/21 03:17:33;;;;;;;0.00;0.00;;;17.70;99.90;;;;;;4972916;28;20055;-64
2023/09/21 03:20:00;;;;;;;0.00;0.00;;;17.70;99.90;;;;;;4972583;28;20055;-64
2023/09/21 03:22:26;;;;;;;0.00;0.00;;;17.70;99.90;;;;;;4972500;28;20059;-64
2023/09/21 03:24:55;;;;;;;0.00;0.00;;;17.60;99.90;;;;;;4971542;28;20042;-64
2023/09/21 03:27:23;;;;;;;0.00;0.00;;;17.60;99.90;;;;;;4965762;28;20474;-64
2023/09/21 03:29:49;;;;;;;0.00;0.00;;;17.60;99.90;;;;;;4972912;28;20054;-63
2023/09/21 03:32:15;;;;;;;0.00;0.00;;;17.60;99.90;;;;;;4971183;28;20562;-64
2023/09/21 03:34:40;;;;;;;0.00;0.00;;;17.60;99.90;;;;;;4972251;28;20117;-64
2023/09/21 03:37:06;;;;;;;0.15;0.15;;;17.60;99.90;;;;;;4953718;28;20568;-64
2023/09/21 03:39:32;;;;;;;0.05;0.05;;;17.60;99.90;;;;;;4955493;28;20054;-64
2023/09/21 03:41:58;;;;;;;0.00;0.00;;;17.60;99.90;;;;;;4972260;28;20051;-64
2023/09/21 03:44:24;;;;;;;0.03;0.03;;;17.60;99.90;;;;;;4971090;28;20042;-64
2023/09/21 03:46:49;;;;;;;4.65;1.65;;;17.60;99.90;;;;;;4972808;28;20054;-64
2023/09/21 03:49:15;;;;;;;0.00;0.00;;;17.60;99.90;;;;;;4972162;28;20043;-64
2023/09/21 03:51:41;;;;;;;0.03;0.03;;;17.60;99.90;;;;;;4971682;28;20494;-64
2023/09/21 03:54:06;;;;;;;0.00;0.00;;;17.60;99.90;;;;;;4971972;28;20035;-64
2023/09/21 03:56:36;;;;;;;0.22;0.22;;;17.60;99.90;;;;;;4971828;28;20051;-65
2023/09/21 03:59:01;;;;;;;0.10;0.10;;;17.60;99.90;;;;;;4970707;28;20043;-64
2023/09/21 04:01:29;;;;;;;0.00;0.00;;;17.60;99.90;;;;;;4972570;28;20058;-63
2023/09/21 04:03:55;;;;;;;0.00;0.00;;;17.60;99.90;;;;;;4972048;28;20069;-63
2023/09/21 04:06:21;;;;;;;0.00;0.00;;;17.60;99.90;;;;;;4953399;28;20407;-64
2023/09/21 04:08:46;;;;;;;0.22;0.05;;;17.50;99.90;;;;;;4972431;28;20043;-64
2023/09/21 04:11:12;;;;;;;0.00;0.00;;;17.50;99.90;;;;;;4970953;28;20506;-64
2023/09/21 04:13:38;;;;;;;0.47;0.47;;;17.50;99.90;;;;;;4971828;28;20066;-64
2023/09/21 04:16:05;;;;;;;0.10;0.10;;;17.50;99.90;;;;;;4972576;28;20038;-64
2023/09/21 04:18:31;;;;;;;0.00;0.00;;;17.50;99.90;;;;;;4972116;28;20039;-64
2023/09/21 04:20:57;;;;;;;0.20;0.20;;;17.50;99.90;;;;;;4970433;28;20441;-63
2023/09/21 04:23:24;;;;;;;0.00;0.00;;;17.50;99.90;;;;;;4972507;28;20050;-64
2023/09/21 04:25:50;;;;;;;0.03;0.03;;;17.50;99.90;;;;;;4972045;28;20054;-64
2023/09/21 04:28:15;;;;;;;0.55;0.50;;;17.40;99.90;;;;;;4970474;28;20794;-64
2023/09/21 04:30:41;;;;;;;0.10;0.10;;;17.40;99.90;;;;;;4972829;28;20039;-64
2023/09/21 04:33:07;;;;;;;0.00;0.00;;;17.40;99.90;;;;;;4956724;28;20042;-64
2023/09/21 04:35:32;;;;;;;0.00;0.00;;;17.40;99.90;;;;;;4976045;28;20042;-64
2023/09/21 04:37:58;;;;;;;3.25;0.32;;;17.40;99.90;;;;;;4974372;28;20439;-64
2023/09/21 04:40:26;;;;;;;0.05;0.05;;;17.40;99.90;;;;;;4975252;28;20494;-64
2023/09/21 04:42:51;;;;;;;0.00;0.00;;;17.50;99.90;;;;;;4976080;28;20047;-64
2023/09/21 04:45:18;;;;;;;0.00;0.00;;;17.50;99.90;;;;;;4973325;28;20057;-64
2023/09/21 04:47:49;;;;;;;0.00;0.00;;;17.50;99.90;;;;;;4958552;28;20070;-64
2023/09/21 04:50:16;;;;;;;0.10;0.10;;;17.50;99.90;;;;;;4973969;28;20050;-64
2023/09/21 04:52:43;;;;;;;0.15;0.15;;;17.50;99.90;;;;;;4975103;28;20066;-64
2023/09/21 04:55:10;;;;;;;0.15;0.15;;;17.50;99.90;;;;;;4975921;28;20053;-64
2023/09/21 04:57:36;;;;;;;4.03;0.38;;;17.50;99.90;;;;;;4956463;28;20142;-63
2023/09/21 05:00:07;;;;;;;0.32;0.32;;;17.50;99.90;;;;;;4973583;28;20035;-64
2023/09/21 05:02:33;;;;;;;0.25;0.25;;;17.50;99.90;;;;;;4975760;28;20090;-64
2023/09/21 05:04:59;;;;;;;0.00;0.00;;;17.50;99.90;;;;;;4975666;28;20100;-64
2023/09/21 05:07:25;;;;;;;0.00;0.00;;;17.40;99.90;;;;;;4972921;28;20497;-64
2023/09/21 05:09:51;;;;;;;0.00;0.00;;;17.40;99.90;;;;;;4971073;28;20050;-64
2023/09/21 05:12:18;;;;;;;0.00;0.00;;;17.40;99.90;;;;;;4975778;28;20042;-64
2023/09/21 05:14:45;;;;;;;0.00;0.00;;;17.40;99.90;;;;;;4972680;28;20509;-64
2023/09/21 05:17:11;;;;;;;0.15;0.15;;;17.40;99.90;;;;;;4975672;28;20097;-64
2023/09/21 05:19:37;;;;;;;0.00;0.00;;;17.40;99.90;;;;;;4975464;28;20053;-64
2023/09/21 05:22:04;;;;;;;0.00;0.00;;;17.40;99.90;;;;;;4957279;28;20076;-63
2023/09/21 05:24:30;;;;;;;0.00;0.00;;;17.40;99.90;;;;;;4973290;28;20414;-64
2023/09/21 05:26:56;;;;;;;0.00;0.00;;;17.30;99.90;;;;;;4974631;28;20051;-64
2023/09/21 05:29:22;;;;;;;0.35;0.35;;;17.30;99.90;;;;;;4973446;28;20050;-64
2023/09/21 05:31:49;;;;;;;0.00;0.00;;;17.30;99.90;;;;;;4975388;28;20406;-64
2023/09/21 05:34:15;;;;;;;0.00;0.00;;;17.30;99.90;;;;;;4964671;28;20055;-64
2023/09/21 05:36:44;;;;;;;0.00;0.00;;;17.40;99.90;;;;;;4975101;28;20134;-64
2023/09/21 05:39:11;;;;;;;0.43;0.30;;;17.30;99.90;;;;;;4972882;28;20598;-64
2023/09/21 05:41:37;;;;;;;0.00;0.00;;;17.30;99.90;;;;;;4974036;28;20082;-64
2023/09/21 05:44:03;;;;;;;0.15;0.15;;;17.30;99.90;;;;;;4957309;28;20125;-64
2023/09/21 05:46:28;;;;;;;0.08;0.08;;;17.30;99.90;;;;;;4973051;28;20062;-64
2023/09/21 05:48:54;;;;;;;0.30;0.30;;;17.30;99.90;;;;;;4974175;28;20570;-64
2023/09/21 05:51:20;;;;;;;0.05;0.05;;;17.30;99.90;;;;;;4974701;28;20351;-64
2023/09/21 05:53:46;;;;;;;0.32;0.32;;;17.30;99.90;;;;;;4973096;28;20077;-64
2023/09/21 05:56:11;;;;;;;0.00;0.00;;;17.20;99.90;;;;;;4972381;28;20482;-64
2023/09/21 05:58:37;;;;;;;1.13;0.40;;;17.20;99.90;;;;;;4974565;28;20074;-64
2023/09/21 06:01:03;;;;;;;0.00;0.00;;;17.10;99.90;;;;;;4971111;28;20039;-65
2023/09/21 06:03:28;;;;;;;0.00;0.00;;;17.10;99.90;;;;;;4971930;28;20066;-65
2023/09/21 06:05:55;;;;;;;0.22;0.22;;;17.10;99.90;;;;;;4955272;28;20038;-65
2023/09/21 06:08:21;;;;;;;0.00;0.00;;;17.00;99.90;;;;;;4974240;28;20462;-65
2023/09/21 06:10:47;;;;;;;0.00;0.00;;;16.90;99.90;;;;;;4956563;28;20054;-65
2023/09/21 06:13:12;;;;;;;0.00;0.00;;;17.00;99.90;;;;;;4972974;28;20034;-65
2023/09/21 06:15:48;;;;;;;0.10;0.10;;;16.90;99.90;;;;;;4974044;28;20055;-64
2023/09/21 06:18:14;;;;;;;0.05;0.05;;;16.90;99.90;;;;;;4972527;28;20077;-64
2023/09/21 06:20:46;;;;;;;0.00;0.00;;;16.90;99.90;;;;;;4971180;28;20624;-64
2023/09/21 06:23:11;;;;;;;0.65;0.52;;;16.90;99.90;;;;;;4956209;28;20045;-64
2023/09/21 06:25:38;;;;;;;0.10;0.10;;;16.90;99.90;;;;;;4974059;28;20034;-64
2023/09/21 06:28:04;;;;;;;0.13;0.13;;;16.90;99.90;;;;;;4972489;28;20101;-64
2023/09/21 06:30:29;;;;;;;0.30;0.30;;;16.90;99.90;;;;;;4973075;28;20161;-64
2023/09/21 06:32:55;;;;;;;0.00;0.00;;;16.90;99.90;;;;;;4956742;28;20134;-64
2023/09/21 06:35:23;;;;;;;0.00;0.00;;;16.80;99.90;;;;;;4973891;28;20073;-64
2023/09/21 06:37:51;;;;;;;0.00;0.00;;;16.80;99.90;;;;;;4971732;28;20149;-64
2023/09/21 06:40:17;;;;;;;0.00;0.00;;;16.80;99.90;;;;;;4972125;28;20069;-64
2023/09/21 06:42:42;;;;;;;0.00;0.00;;;16.80;99.90;;;;;;4956241;28;20470;-64
2023/09/21 06:45:09;;;;;;;0.20;0.20;;;16.80;99.90;;;;;;4973258;28;20371;-64
2023/09/21 06:47:34;;;;;;;0.10;0.10;;;16.70;99.90;;;;;;4971690;28;20114;-64
2023/09/21 06:50:00;;;;;;;0.00;0.00;;;16.70;99.90;;;;;;4973461;28;20039;-64
2023/09/21 06:52:25;;;;;;;0.00;0.00;;;16.70;99.90;;;;;;4954126;28;20053;-64
2023/09/21 06:54:52;;;;;;;0.00;0.00;;;16.70;99.90;;;;;;4972256;28;20046;-65
2023/09/21 06:57:23;;;;;;;0.28;0.28;;;16.50;99.90;;;;;;4954663;28;20086;-65
2023/09/21 06:59:49;;;;;;;0.00;0.00;;;16.40;99.90;;;;;;4972852;28;20050;-64
2023/09/21 07:02:15;;;;;;;0.00;0.00;;;16.30;99.90;;;;;;4954237;28;20491;-64
2023/09/21 07:04:40;;;;;;;0.15;0.15;;;16.20;99.90;;;;;;4973387;28;20053;-64
2023/09/21 07:07:07;;;;;;;0.15;0.15;;;16.10;99.90;;;;;;4972941;28;20039;-65
2023/09/21 07:09:36;;;;;;;0.00;0.00;;;16.10;99.90;;;;;;4971127;28;20546;-64
2023/09/21 07:12:03;;;;;;;0.03;0.03;;;15.90;99.90;;;;;;4966786;28;20481;-64
2023/09/21 07:14:28;;;;;;;0.10;0.10;;;15.80;99.90;;;;;;4953506;28;20249;-64
2023/09/21 07:16:56;;;;;;;0.00;0.00;;;15.80;99.90;;;;;;4972759;28;20402;-64
2023/09/21 07:19:22;;;;;;;0.00;0.00;;;15.80;99.90;;;;;;4972804;28;20085;-64
2023/09/21 07:21:48;;;;;;;0.00;0.00;;;15.70;99.90;;;;;;4971764;28;20333;-64
2023/09/21 07:24:15;;;;;;;0.00;0.00;;;15.70;99.90;;;;;;4972580;28;20105;-64
2023/09/21 07:26:43;;;;;;;0.00;0.00;;;15.60;99.90;;;;;;4954972;28;20051;-64
2023/09/21 07:29:09;;;;;;;0.70;0.43;;;15.60;99.90;;;;;;4965239;28;20106;-64
2023/09/21 07:31:36;;;;;;;0.20;0.20;;;15.60;99.90;;;;;;4970912;28;20494;-64
2023/09/21 07:34:02;;;;;;;0.00;0.00;;;15.50;99.90;;;;;;4972322;28;20046;-64
2023/09/21 07:36:28;;;;;;;1.30;0.45;;;15.50;99.90;;;;;;4970803;28;20106;-64
2023/09/21 07:38:55;;;;;;;0.00;0.00;;;15.40;99.90;;;;;;4973045;28;20580;-64
2023/09/21 07:41:21;;;;;;;0.00;0.00;;;15.40;99.90;;;;;;4956238;28;20039;-64
2023/09/21 07:43:48;;;;;;;0.00;0.00;;;15.40;99.90;;;;;;4954173;28;20493;-64
2023/09/21 07:46:14;;;;;;;0.47;0.47;;;15.40;99.90;;;;;;4972324;28;20128;-64
2023/09/21 07:48:41;;;;;;;0.30;0.30;;;15.40;99.90;;;;;;4970484;28;20083;-64
2023/09/21 07:51:07;;;;;;;0.13;0.13;;;15.40;99.90;;;;;;4972577;28;20049;-63
2023/09/21 07:53:35;;;;;;;0.00;0.00;;;15.40;99.90;;;;;;4946099;28;20550;-64
2023/09/21 07:56:08;;;;;;;0.00;0.00;;;15.40;99.90;;;;;;4971880;28;20490;-64
2023/09/21 07:58:34;;;;;;;0.00;0.00;;;15.50;99.90;;;;;;4971213;28;20046;-65
2023/09/21 08:01:00;;;;;;;0.00;0.00;;;15.50;99.90;;;;;;4972637;28;20035;-64
2023/09/21 08:03:26;;;;;;;0.15;0.15;;;15.50;99.90;;;;;;4970151;28;20051;-64
2023/09/21 08:05:53;;;;;;;0.00;0.00;;;15.50;99.90;;;;;;4974537;28;20434;-64
2023/09/21 08:08:18;;;;;;;0.05;0.05;;;15.50;99.90;;;;;;4975152;28;20046;-64
2023/09/21 08:10:44;;;;;;;0.00;0.00;;;15.50;99.90;;;;;;4975594;28;20047;-64
2023/09/21 08:13:11;;;;;;;0.00;0.00;;;15.50;99.90;;;;;;4976814;28;20154;-64
2023/09/21 08:15:36;;;;;;;0.00;0.00;;;15.50;99.90;;;;;;4976387;28;20070;-64
2023/09/21 08:18:03;;;;;;;0.00;0.00;;;15.60;99.90;;;;;;4974475;28;20193;-64
2023/09/21 08:20:28;;;;;;;0.00;0.00;;;15.60;99.90;;;;;;4976646;28;20051;-64
2023/09/21 08:22:54;;;;;;;0.00;0.00;;;15.60;99.90;;;;;;4975743;28;20043;-64
2023/09/21 08:25:20;;;;;;;0.10;0.10;;;15.70;99.90;;;;;;4975036;28;20493;-64
2023/09/21 08:27:48;;;;;;;0.32;0.32;;;15.70;99.90;;;;;;4975965;28;20139;-64
2023/09/21 08:30:15;;;;;;;0.00;0.00;;;15.70;99.90;;;;;;4974456;28;20130;-63
2023/09/21 08:32:41;;;;;;;0.00;0.00;;;15.70;99.90;;;;;;4975956;28;20062;-64
2023/09/21 08:35:07;;;;;;;0.00;0.00;;;15.70;99.90;;;;;;4957100;28;20046;-64
2023/09/21 08:37:34;;;;;;;0.00;0.00;;;15.70;99.90;;;;;;4975092;28;20038;-64
2023/09/21 08:40:05;;;;;;;0.00;0.00;;;15.70;99.90;;;;;;4976403;28;20073;-64
2023/09/21 08:42:32;;;;;;;1.20;1.10;;;15.80;99.90;;;;;;4975873;28;20049;-64
2023/09/21 08:44:58;;;;;;;0.00;0.00;;;15.80;99.90;;;;;;4973803;28;20061;-64
2023/09/21 08:47:28;;;;;;;0.00;0.00;;;15.70;99.90;;;;;;4975424;28;20046;-64
2023/09/21 08:49:54;;;;;;;0.00;0.00;;;15.70;99.90;;;;;;4976281;28;20064;-64
2023/09/21 08:52:21;;;;;;;0.15;0.15;;;15.70;99.90;;;;;;4975155;28;20030;-64
2023/09/21 08:54:48;;;;;;;0.00;0.00;;;15.70;99.90;;;;;;4974100;28;20054;-64
2023/09/21 08:57:14;;;;;;;0.85;0.85;;;15.70;99.90;;;;;;4975810;28;20523;-64
2023/09/21 08:59:41;;;;;;;0.00;0.00;;;15.60;99.90;;;;;;4975139;28;20051;-64
2023/09/21 09:02:12;;;;;;;0.05;0.05;;;15.60;99.90;;;;;;4958280;28;20043;-64
2023/09/21 09:04:43;;;;;;;0.00;0.00;;;15.60;99.90;;;;;;4975175;28;20059;-64
2023/09/21 09:07:11;;;;;;;0.00;0.00;;;15.70;99.90;;;;;;4975249;28;20039;-64
2023/09/21 09:09:39;;;;;;;0.00;0.00;;;15.70;99.90;;;;;;4973817;28;20442;-64
2023/09/21 09:12:21;;;;;;;0.00;0.00;;;15.70;99.90;;;;;;4974429;28;20051;-64
2023/09/21 09:14:46;;;;;;;0.10;0.10;;;15.70;99.90;;;;;;4956446;28;20055;-64
2023/09/21 09:17:14;;;;;;;0.00;0.00;;;15.70;99.90;;;;;;4974141;28;20467;-64
2023/09/21 09:19:39;;;;;;;0.00;0.00;;;15.70;99.90;;;;;;4974890;28;20039;-64
2023/09/21 09:22:05;;;;;;;0.00;0.00;;;15.80;99.90;;;;;;4975178;28;20038;-64
2023/09/21 09:24:31;;;;;;;0.00;0.00;;;15.80;99.90;;;;;;4973768;28;20122;-64
2023/09/21 09:27:00;;;;;;;0.00;0.00;;;15.80;99.90;;;;;;4974431;28;20125;-64
2023/09/21 09:29:26;;;;;;;0.00;0.00;;;15.70;99.90;;;;;;4975432;28;20110;-64
2023/09/21 09:31:52;;;;;;;0.00;0.00;;;15.80;99.90;;;;;;4975407;28;20081;-64
2023/09/21 09:34:18;;;;;;;0.00;0.00;;;15.70;99.90;;;;;;4955119;28;20078;-64
2023/09/21 09:36:52;;;;;;;0.10;0.10;;;15.80;99.90;;;;;;4974936;28;20403;-64
2023/09/21 09:39:18;;;;;;;0.30;0.30;;;15.80;99.90;;;;;;4967548;28;20051;-65
2023/09/21 09:41:46;;;;;;;0.00;0.00;;;15.80;99.90;;;;;;4974521;28;20110;-64
2023/09/21 09:44:14;;;;;;;0.30;0.30;;;15.80;99.90;;;;;;4975039;28;20069;-64
2023/09/21 09:46:42;;;;;;;0.00;0.00;;;15.90;99.90;;;;;;4972823;28;20487;-64
2023/09/21 09:49:10;;;;;;;0.00;0.00;;;15.80;99.90;;;;;;4974020;28;20051;-64
2023/09/21 09:51:41;;;;;;;0.10;0.10;;;15.90;99.90;;;;;;4973640;28;20034;-64
2023/09/21 09:54:12;;;;;;;0.00;0.00;;;15.90;99.90;;;;;;4956423;28;20134;-64
2023/09/21 09:56:41;;;;;;;0.00;0.00;;;15.90;99.90;;;;;;4974718;28;20050;-64
2023/09/21 09:59:11;;;;;;;0.00;0.00;;;15.90;99.90;;;;;;4972934;28;20038;-64
2023/09/21 10:01:39;;;;;;;0.30;0.30;;;16.00;99.90;;;;;;4973367;28;20042;-64
2023/09/21 10:04:08;;;;;;;0.00;0.00;;;16.10;99.90;;;;;;4957568;28;20086;-64
2023/09/21 10:06:37;;;;;;;0.00;0.00;;;16.20;99.90;;;;;;4972826;28;20038;-64
2023/09/21 10:09:13;;;;;;;0.10;0.10;;;16.20;99.90;;;;;;4973823;28;20049;-64
2023/09/21 10:11:48;;;;;;;0.00;0.00;;;16.10;99.90;;;;;;4974423;28;20133;-64
2023/09/21 10:14:17;;;;;;;0.00;0.00;;;16.10;99.90;;;;;;4974252;28;20047;-64
2023/09/21 10:16:49;;;;;;;0.65;0.50;;;16.10;99.90;;;;;;4971934;28;20051;-64
2023/09/21 10:19:25;;;;;;;0.00;0.00;;;16.10;99.90;;;;;;4956964;28;20038;-64
2023/09/21 10:21:56;;;;;;;0.47;0.22;;;16.00;99.90;;;;;;4974109;28;20043;-64
2023/09/21 10:24:24;;;;;;;0.28;0.28;;;16.00;99.90;;;;;;4973629;28;20062;-64
2023/09/21 10:26:51;;;;;;;0.22;0.20;;;16.00;99.90;;;;;;4954758;28;20042;-64
2023/09/21 10:29:42;;;;;;;0.00;0.00;;;16.00;99.90;;;;;;4973201;28;20101;-65
2023/09/21 10:32:07;;;;;;;0.00;0.00;;;16.00;99.90;;;;;;4962843;28;20491;-64
2023/09/21 10:34:33;;;;;;;0.00;0.00;;;16.00;99.90;;;;;;4972431;28;20043;-65
2023/09/21 10:37:07;;;;;;;0.00;0.00;;;15.90;99.90;;;;;;4972682;28;20055;-64
2023/09/21 10:39:33;;;;;;;0.00;0.00;;;15.90;99.90;;;;;;4972875;28;20055;-65
2023/09/21 10:42:25;;;;;;;0.00;0.00;;;15.90;99.90;;;;;;4973098;28;20049;-65
2023/09/21 10:45:02;;;;;;;0.00;0.00;;;15.90;99.90;;;;;;4965159;28;20058;-65
2023/09/21 10:47:37;;;;;;;0.30;0.30;;;15.90;99.90;;;;;;4964238;28;20054;-65
2023/09/21 10:50:07;;;;;;;0.00;0.00;;;15.90;99.90;;;;;;4973879;28;20046;-65
2023/09/21 10:52:33;;;;;;;0.00;0.00;;;15.90;99.90;;;;;;4960953;28;20038;-64
2023/09/21 10:54:59;;;;;;;0.35;0.35;;;16.00;99.90;;;;;;4973497;28;20046;-64
2023/09/21 10:57:29;;;;;;;0.00;0.00;;;16.00;99.90;;;;;;4973289;28;20078;-64
2023/09/21 10:59:59;;;;;;;0.00;0.00;;;16.00;99.90;;;;;;4973651;28;20085;-64
2023/09/21 11:02:26;;;;;;;0.00;0.00;;;16.00;99.90;;;;;;4972260;28;20058;-64
2023/09/21 11:04:52;;;;;;;0.00;0.00;;;16.00;99.90;;;;;;4973163;28;20039;-64
2023/09/21 11:07:21;;;;;;;0.38;0.30;;;16.00;99.90;;;;;;4973999;28;20057;-64
2023/09/21 11:09:48;;;;;;;0.00;0.00;;;16.00;99.90;;;;;;4965545;28;20109;-64
2023/09/21 11:12:14;;;;;;;0.00;0.00;;;16.00;99.90;;;;;;4954188;28;20490;-65
2023/09/21 11:14:44;;;;;;;0.00;0.00;;;16.00;99.90;;;;;;4973412;28;20565;-64
2023/09/21 11:17:16;;;;;;;0.00;0.00;;;16.10;99.90;;;;;;4973683;28;20506;-64
2023/09/21 11:19:43;;;;;;;0.00;0.00;;;16.00;99.90;;;;;;4972884;28;20054;-65
2023/09/21 11:22:10;;;;;;;0.43;0.43;;;16.10;99.90;;;;;;4971355;28;20054;-64
2023/09/21 11:24:37;;;;;;;0.00;0.00;;;16.10;99.90;;;;;;4973111;28;20085;-65
2023/09/21 11:27:14;;;;;;;0.30;0.30;;;16.00;99.90;;;;;;4969179;28;20038;-64
2023/09/21 11:29:42;;;;;;;0.00;0.00;;;16.10;99.90;;;;;;4973190;28;20042;-65
2023/09/21 11:32:09;;;;;;;0.35;0.30;;;16.00;99.90;;;;;;4955840;28;20118;-65
2023/09/21 11:34:41;;;;;;;0.40;0.40;;;16.10;99.90;;;;;;4972524;28;20066;-65
2023/09/21 11:37:09;;;;;;;0.00;0.00;;;16.00;99.90;;;;;;4971096;28;20043;-65
2023/09/21 11:39:39;;;;;;;0.00;0.00;;;16.10;99.90;;;;;;4972404;28;20054;-65
2023/09/21 11:42:11;;;;;;;0.10;0.10;;;16.00;99.90;;;;;;4971159;28;20038;-64
2023/09/21 11:44:42;;;;;;;0.00;0.00;;;16.00;99.90;;;;;;4972568;28;20038;-65
2023/09/21 11:47:11;;;;;;;0.10;0.10;;;16.10;99.90;;;;;;4971880;28;20065;-65
2023/09/21 11:49:39;;;;;;;0.00;0.00;;;16.00;99.90;;;;;;4972869;28;20121;-65
2023/09/21 11:52:05;;;;;;;0.00;0.00;;;16.00;99.90;;;;;;4970959;28;20058;-64
2023/09/21 11:54:35;;;;;;;0.00;0.00;;;16.00;99.90;;;;;;4965814;28;20050;-65
2023/09/21 11:57:01;;;;;;;0.00;0.00;;;16.00;99.90;;;;;;4975162;28;20132;-64
2023/09/21 11:59:26;;;;;;;0.00;0.00;;;16.10;99.90;;;;;;4971223;28;20058;-64
2023/09/21 12:01:56;;;;;;;0.20;0.20;;;16.10;99.90;;;;;;4955104;28;20055;-64
2023/09/21 12:04:23;;;;;;;0.00;0.00;;;16.10;99.90;;;;;;4954711;28;20039;-65
2023/09/21 12:06:48;;;;;;;2.55;0.65;;;16.10;99.90;;;;;;4971689;28;20051;-64
2023/09/21 12:09:14;;;;;;;0.10;0.10;;;16.10;99.90;;;;;;4972302;28;20497;-64
2023/09/21 12:11:40;;;;;;;0.00;0.00;;;16.10;99.90;;;;;;4954382;28;20050;-64
2023/09/21 12:14:05;;;;;;;0.00;0.00;;;16.10;99.90;;;;;;4972700;28;20043;-64
2023/09/21 12:16:31;;;;;;;0.00;0.00;;;16.00;99.90;;;;;;4972016;28;20093;-64
2023/09/21 12:18:58;;;;;;;0.00;0.00;;;16.10;99.90;;;;;;4971006;28;20061;-65
2023/09/21 12:21:25;;;;;;;0.00;0.00;;;16.10;99.90;;;;;;4970776;28;20047;-65
2023/09/21 12:23:53;;;;;;;0.28;0.28;;;16.10;99.90;;;;;;4971691;28;20039;-65
2023/09/21 12:26:19;;;;;;;0.00;0.00;;;16.10;99.90;;;;;;4955586;28;20058;-64
2023/09/21 12:28:45;;;;;;;0.00;0.00;;;16.20;99.90;;;;;;4970765;28;20046;-64
2023/09/21 12:31:13;;;;;;;0.00;0.00;;;16.10;99.90;;;;;;4971519;28;20098;-64
2023/09/21 12:33:40;;;;;;;0.00;0.00;;;16.20;99.90;;;;;;4972715;28;20088;-64
2023/09/21 12:36:05;;;;;;;0.00;0.00;;;16.20;99.90;;;;;;4969761;28;20046;-65
2023/09/21 12:38:32;;;;;;;0.00;0.00;;;16.30;99.90;;;;;;4972355;28;20050;-64
2023/09/21 12:40:59;;;;;;;0.00;0.00;;;16.30;99.90;;;;;;4972615;28;20061;-64
2023/09/21 12:43:25;;;;;;;0.00;0.00;;;16.30;99.90;;;;;;4970033;28;20039;-64
2023/09/21 12:45:50;;;;;;;0.00;0.00;;;16.10;99.90;;;;;;4972155;28;20081;-65
2023/09/21 12:48:16;;;;;;;0.00;0.00;;;16.20;99.90;;;;;;4971998;28;20135;-64
2023/09/21 12:50:42;;;;;;;0.00;0.00;;;16.20;99.90;;;;;;4954254;28;20078;-64